x

North Nomad (46184) Wave Buoy

8:00am - Mon 22nd Dec 2014 All times are AKST. -9 hours from GMT.

  • Sig Wave height 12.8ft
  • Peak Period 14s
  • Wind
    13mph, 16mph gusts
  • Sea Temp 47°f
  • Air Temp 47°f
  • Sea Pressure 1016.7mb
  • North Nomad
  • North Nomad

More Historic Weather Station data

Upgrade to MSW Pro to gain access to the past 30 days of data for over 8000 Wavebouys and Weather Stations around the globe.

Join Pro

Comparision Forecast

View Surf forecast
   
Mon 12/22 8:00am 13ft 14s 13 16 mph 1016.7mb 47f 47f
7:00am 12ft 12s 13 16 mph 1016.8mb 47f 47f
6:00am 12ft 14s 13 18 mph 1016.4mb 47f 47f
5:00am 12ft 13s 16 20 mph 1016.1mb 47f 47f
4:00am 12.5ft 13s 18 22 mph 1016mb 47f 47f
3:00am 13ft 13s 16 22 mph 1015.5mb 47f 47f
2:00am 13ft 12s 16 20 mph 1015.3mb 47f 47f
1:00am 13ft 12s 18 22 mph 1013.9mb 47f 47f
12:00am 14.5ft 13s 18 22 mph 1012.9mb 47f 47f
Sun 12/21 11:00pm 15.5ft 14s 20 25 mph 1012.3mb 47f 47f
10:00pm 14.5ft 12s 22 27 mph 1011mb 47f 46f
9:00pm 15ft 12s 22 29 mph 1010.1mb 47f 47f
8:00pm 14.5ft 14s 22 29 mph 1009mb 47f 47f
7:00pm 15ft 14s 22 27 mph 1008mb 47f 47f
6:00pm 14.5ft 14s 20 27 mph 1007mb 47f 46f
5:00pm 14.5ft 14s 20 27 mph 1005.6mb 47f 46f
4:00pm 13.5ft 14s 25 31 mph 1004.2mb 47f 47f
3:00pm 14ft 12s 25 29 mph 1003.1mb 47f 47f
2:00pm 12.5ft 14s 20 25 mph 1001.9mb 47f 46f
1:00pm 13ft 14s 22 29 mph 1000.4mb 47f 46f
12:00pm 13ft 13s 22 27 mph 999mb 47f 47f
11:00am 13ft 10s 18 22 mph 998mb 47f 46f
10:00am 13ft 14s 20 25 mph 996.7mb 47f 46f
9:00am 13.5ft 10s 22 27 mph 995.1mb 47f 46f
8:00am 14ft 14s 20 27 mph 993.5mb 47f 46f
7:00am 13ft 11s 20 25 mph 992.4mb 47f 47f
6:00am 14ft 10s 13 18 mph 991.5mb 47f 45f
5:00am 15ft 13s 18 22 mph 990.4mb 47f 45f
4:00am 14ft 12s 20 27 mph 988.9mb 47f 45f
3:00am 14.5ft 12s 25 31 mph 987.6mb 47f 45f
2:00am 14ft 12s 27 34 mph 986.5mb 47f 46f
1:00am 14ft 12s 22 27 mph 985.8mb 47f 47f
12:00am 13ft 10s 22 29 mph 984.5mb 47f 46f
Sat 12/20 11:00pm 12.5ft 12s 11 13 mph 984.6mb 47f 46f
10:00pm 11.5ft 11s 13 18 mph 984mb 47f 47f
9:00pm 12.5ft 12s 7 11 mph 983.6mb 47f 46f
8:00pm 12.5ft 11s 2 4 mph 982.8mb 47f 45f
7:00pm 12ft 11s  -  2 mph 982.1mb 47f 44f
6:00pm 11.5ft 11s 7 9 mph 981.7mb 47f 44f
5:00pm 11ft 10s 9 11 mph 981.1mb 47f 46f
4:00pm 10.5ft 10s 11 13 mph 980.4mb 47f 47f
3:00pm 12ft 10s 13 18 mph 979.7mb 47f 47f
2:00pm 12.5ft 9s 11 16 mph 979mb 47f 46f
1:00pm 11.5ft 11s 13 18 mph 978mb 47f 46f
12:00pm 12ft 9s 13 18 mph 977.3mb 47f 46f
11:00am 11.5ft 10s 11 16 mph 976.6mb 47f 45f
10:00am 12ft 11s 16 22 mph 975.7mb 47f 46f
9:00am 13ft 9s 13 18 mph 974.9mb 47f 45f
8:00am 12.5ft 10s 16 20 mph 973.8mb 47f 46f
7:00am 12.5ft 10s 22 29 mph 973mb 47f 44f
6:00am 13ft 9s 22 27 mph 972.3mb 47f 45f
5:00am 12.5ft 14s 22 29 mph 971.5mb 47f 45f
4:00am 13ft 11s 27 31 mph 970.3mb 47f 45f
3:00am 15ft 10s 22 27 mph 969.7mb 47f 45f
2:00am 14ft 9s 20 27 mph 969.1mb 47f 45f
1:00am 15ft 9s 16 18 mph 968.9mb 47f 47f
12:00am 16.5ft 10s 18 25 mph 969mb 47f 47f
Fri 12/19 11:00pm 17ft 9s 20 25 mph 969.3mb 47f 48f
10:00pm 17ft 14s 20 25 mph 969.6mb 47f 48f
9:00pm 16.5ft 14s 25 29 mph 969.6mb 47f 48f
8:00pm  -   -  34
mph
969.6mb 47f 47f
7:00pm 15ft 14s 27 36 mph 972.2mb 47f 46f
6:00pm 15ft 14s 25 34 mph 974.7mb 47f 45f
5:00pm 15.5ft 14s 22 27 mph 977.1mb 47f 44f
4:00pm 14.5ft 15s 20 25 mph 978.2mb 47f 45f
3:00pm 15.5ft 16s 16 22 mph 978.7mb 47f 46f
2:00pm 15.5ft 16s 18 22 mph 978.7mb 47f 46f
1:00pm 16ft 14s 20 31 mph 978.8mb 47f 45f
12:00pm 16.5ft 16s 18 22 mph 979.2mb 47f 47f
11:00am 17.5ft 14s 18 25 mph 979.3mb 47f 46f
10:00am 19.5ft 16s 18 22 mph 979.3mb 47f 47f
9:00am 19.5ft 16s 13 20 mph 979.1mb 47f 47f
8:00am 20ft 16s 16 18 mph 978.8mb 47f 46f
7:00am 20.5ft 16s 18 25 mph 978.6mb 47f 46f
6:00am 19.5ft 12s 22 27 mph 978.3mb 47f 47f
5:00am 20.5ft 16s 20 25 mph 978.6mb 47f 46f
4:00am 21.5ft 12s 25 31 mph 978.5mb 47f 46f
3:00am 20.5ft 17s 25 34 mph 978.5mb 47f 46f
2:00am 19.5ft 17s 27 34 mph 979mb 47f 44f
1:00am 20.5ft 15s 29 38 mph 978.8mb 47f 47f
12:00am 21.5ft 18s 31 38 mph 978.9mb 47f 47f
Thu 12/18 11:00pm 21.5ft 16s 29 38 mph 979.2mb 47f 47f
10:00pm 23.5ft 16s 29 38 mph 979.6mb 47f 47f
9:00pm 22.5ft 16s 25 31 mph 980.5mb 47f 46f
8:00pm 22.5ft 17s 27 36 mph 980.7mb 47f 47f
7:00pm 20ft 17s 25 34 mph 981.2mb 47f 47f